Latest Weather Observations for Beaudesert AWS

IDQ60801

Issued at 4:05 pm EST Saturday 20 September 2014 (issued every 30 minutes, with the page automatically refreshed every 10 minutes)

About weather observations | Map of weather stations | Latest weather observations for QLD | Other Formats
Station Details ID: 040983 Name: BEAUDESERT DRUMLEY STREET Lat: -27.97 Lon: 152.99 Height: 47.81 m
Data from the previous 72 hours. | See also: Recent months at Beaudesert AWS
Date/Time
EST
Temp
°C
App
Temp
°C
Dew
Point
Rel
Hum
%
Delta-T
°C
Wind Press
QNH
hPa
Press
MSL
hPa
Rain
since 9 am
mm
Dir
 
Spd
km/h
Gust
km/h
Spd
kts
Gust
kts
20/04:00pm 20.9 17.2 9.5 48 6.1 E 19 32 10 17 1019.1 1019.0 0.0
20/03:30pm 21.3 17.0 9.5 47 6.3 E 22 37 12 20 1018.8 1018.7 0.0
20/03:00pm 21.3 19.0 10.5 50 5.9 E 13 24 7 13 1018.5 1018.4 0.0
20/02:30pm 21.5 18.7 10.0 48 6.2 ENE 15 24 8 13 1018.4 1018.3 0.0
20/02:00pm 21.5 19.3 10.9 51 5.8 ENE 13 20 7 11 1018.5 1018.4 0.0
20/01:30pm 21.9 19.2 10.4 48 6.3 E 15 26 8 14 1018.7 1018.6 0.0
20/01:00pm 21.9 19.9 10.1 47 6.4 E 11 20 6 11 1018.9 1018.8 0.0
20/12:30pm 23.3 21.9 9.7 42 7.4 SSE 7 13 4 7 1019.3 1019.2 0.0
20/12:00pm 24.2 23.3 9.4 39 8.0 ENE 4 9 2 5 1019.8 1019.7 0.0
20/11:30am 22.0 20.7 9.9 46 6.6 E 7 15 4 8 1020.4 1020.3 0.0
20/11:00am 22.2 21.0 10.4 47 6.4 E 7 11 4 6 1020.9 1020.8 0.0
20/10:30am 20.7 19.8 11.3 55 5.2 SW 7 13 4 7 1021.3 1021.2 0.0
20/10:00am 20.8 20.2 11.7 56 5.1 W 6 9 3 5 1021.6 1021.5 0.0
20/09:30am 19.6 19.0 11.6 60 4.4 SSW 6 11 3 6 1021.9 1021.8 0.0
20/09:00am 19.7 19.6 12.0 61 4.3 SSE 4 13 2 7 1022.0 1021.9 0.0
20/08:30am 18.3 17.8 12.5 69 3.2 SSW 7 13 4 7 1022.0 1021.9 0.0
20/08:00am 17.1 15.6 11.8 71 2.9 SSW 11 17 6 9 1021.9 1021.8 0.0
20/07:30am 16.3 16.0 12.7 79 2.0 SSW 6 9 3 5 1021.5 1021.4 0.0
20/07:00am 14.3 14.0 11.5 83 1.5 SSW 4 9 2 5 1021.2 1021.1 0.0
20/06:30am 12.9 13.3 11.1 89 0.9 CALM 0 0 0 0 1020.8 1020.7 0.0
20/06:00am 10.9 10.7 9.2 89 0.8 CALM 0 0 0 0 1020.2 1020.1 0.0
20/05:30am 10.8 10.2 9.1 89 0.8 SE 2 7 1 4 1019.7 1019.6 0.0
20/05:00am 11.0 10.5 9.3 89 0.8 SSW 2 4 1 2 1019.4 1019.3 0.0
20/04:30am 11.5 10.8 10.1 91 0.7 S 4 6 2 3 1019.0 1018.9 0.0
20/04:00am 10.7 10.3 8.3 85 1.2 CALM 0 0 0 0 1018.8 1018.7 0.0
20/03:30am 12.4 12.6 10.5 88 1.0 CALM 0 0 0 0 1018.5 1018.4 0.0
20/03:00am 12.8 13.0 10.5 86 1.2 CALM 0 0 0 0 1018.6 1018.5 0.0
20/02:30am 12.0 11.5 9.4 84 1.3 S 2 4 1 2 1018.8 1018.7 0.0
20/02:00am 13.1 13.3 10.6 85 1.3 CALM 0 0 0 0 1018.8 1018.7 0.0
20/01:30am 13.1 13.3 10.6 85 1.3 CALM 0 0 0 0 1019.0 1018.9 0.0
20/01:00am 13.0 13.1 10.2 83 1.4 CALM 0 0 0 0 1019.1 1019.0 0.0
20/12:30am 14.1 14.4 10.9 81 1.7 CALM 0 0 0 0 1019.2 1019.1 0.0
20/12:00am 14.6 14.9 11.0 79 1.9 NE 0 0 0 0 1019.4 1019.3 0.0
 
Date/Time
EST
Temp
°C
App
Temp
°C
Dew
Point
Rel
Hum
%
Delta-T
°C
Wind Press
QNH
hPa
Press
MSL
hPa
Rain
since 9 am
mm
Dir
 
Spd
km/h
Gust
km/h
Spd
kts
Gust
kts
19/11:30pm 14.4 14.7 11.0 80 1.8 CALM 0 0 0 0 1019.5 1019.4 0.0
19/11:00pm 13.7 13.9 10.5 81 1.7 CALM 0 0 0 0 1019.7 1019.6 0.0
19/10:30pm 13.7 13.6 10.7 82 1.6 SE 2 4 1 2 1019.8 1019.7 0.0
19/10:00pm 12.7 11.9 9.7 82 1.5 S 4 4 2 2 1019.9 1019.8 0.0
19/09:30pm 13.0 13.1 10.0 82 1.5 CALM 0 0 0 0 1019.8 1019.7 0.0
19/09:00pm 13.9 13.5 9.7 76 2.2 ENE 2 4 1 2 1019.9 1019.8 0.0
19/08:30pm 15.0 14.7 10.2 73 2.5 E 2 4 1 2 1019.7 1019.6 0.0
19/08:00pm 16.8 17.1 10.9 68 3.2 CALM 0 4 0 2 1019.4 1019.3 0.0
19/07:30pm 16.9 16.7 10.5 66 3.4 ENE 2 6 1 3 1019.1 1019.0 0.0
19/07:00pm 17.3 16.6 10.2 63 3.8 ENE 4 7 2 4 1018.7 1018.6 0.0
19/06:30pm 18.4 17.8 10.5 60 4.2 NE 4 6 2 3 1018.2 1018.1 0.0
19/06:00pm 19.2 18.2 10.2 56 4.8 ENE 6 11 3 6 1017.6 1017.5 0.0
19/05:30pm 20.3 19.0 10.1 52 5.5 ENE 7 13 4 7 1016.9 1016.8 0.0
19/05:00pm 21.1 18.6 9.7 48 6.1 ENE 13 22 7 12 1016.4 1016.3 0.0
19/04:30pm 22.2 19.1 8.7 42 7.2 NE 15 24 8 13 1016.0 1015.9 0.0
19/04:00pm 23.3 19.9 9.0 40 7.7 NE 17 26 9 14 1015.7 1015.6 0.0
19/03:30pm 24.7 21.1 -2.0 17 11.8 N 7 13 4 7 1015.6 1015.5 0.0
19/03:00pm 25.4 22.6 -0.6 18 11.9 N 4 9 2 5 1015.7 1015.6 0.0
19/02:30pm 25.6 22.1 1.0 20 11.6 N 9 19 5 10 1016.0 1015.9 0.0
19/02:00pm 25.3 21.9 2.1 22 11.1 WNW 9 15 5 8 1016.4 1016.3 0.0
19/01:30pm 24.9 22.2 3.5 25 10.5 N 7 15 4 8 1016.8 1016.7 0.0
19/01:00pm 24.2 21.3 4.6 28 9.8 NNW 9 19 5 10 1017.7 1017.6 0.0
19/12:30pm 24.8 22.6 6.1 30 9.6 NW 7 19 4 10 1018.3 1018.2 0.0
19/12:00pm 23.0 21.3 5.9 33 8.7 SW 4 17 2 9 1018.8 1018.7 0.0
19/11:30am 23.2 20.2 6.1 33 8.7 NNW 11 24 6 13 1019.3 1019.2 0.0
19/11:00am 23.6 20.8 8.5 38 8.0 NNW 13 20 7 11 1019.9 1019.8 0.0
19/10:30am 22.6 20.4 8.0 39 7.7 N 9 20 5 11 1020.4 1020.3 0.0
19/10:00am 22.4 21.1 9.2 43 7.1 N 6 13 3 7 1021.0 1020.9 0.0
19/09:30am 21.1 20.4 8.7 45 6.5 NW 2 4 1 2 1021.3 1021.2 0.0
19/09:00am 19.0 17.7 9.2 53 5.1 SSW 6 7 3 4 1021.7 1021.6 -
19/08:30am 17.0 15.7 9.2 60 4.1 SSW 6 11 3 6 1021.8 1021.7 -
19/08:00am 14.1 13.3 8.3 68 2.9 S 2 6 1 3 1021.7 1021.6 -
19/07:30am 11.7 10.6 7.0 73 2.3 S 2 6 1 3 1021.7 1021.6 -
19/07:00am 9.7 8.3 5.7 76 1.8 SSE 2 4 1 2 1021.4 1021.3 -
19/06:30am 7.7 5.9 5.2 84 1.1 S 4 6 2 3 1021.0 1020.9 -
19/06:00am 6.8 5.3 5.1 89 0.7 SSE 2 4 1 2 1020.7 1020.6 -
19/05:30am 6.0 4.7 4.2 88 0.8 CALM 0 0 0 0 1020.6 1020.5 -
19/05:00am 6.5 4.9 4.3 86 0.9 S 2 4 1 2 1020.5 1020.4 -
19/04:30am 6.7 5.1 4.7 87 0.9 SSE 2 4 1 2 1019.9 1019.8 -
19/04:00am 7.7 6.6 5.0 83 1.2 CALM 0 4 0 2 1019.5 1019.4 -
19/03:30am 8.2 6.8 5.7 84 1.1 SSE 2 4 1 2 1019.3 1019.2 -
19/03:00am 7.7 6.5 4.7 81 1.3 CALM 0 0 0 0 1019.3 1019.2 0.0
19/02:30am 8.7 7.6 5.3 79 1.5 CALM 0 4 0 2 1019.4 1019.3 -
19/02:00am 9.1 7.7 5.5 78 1.6 SE 2 4 1 2 1019.6 1019.5 -
19/01:30am 9.7 8.0 5.7 76 1.8 SE 4 6 2 3 1019.9 1019.8 -
19/01:00am 9.8 8.5 5.8 76 1.8 SSE 2 4 1 2 1020.0 1019.9 -
19/12:30am 10.0 8.7 5.8 75 1.9 SSE 2 4 1 2 1020.3 1020.2 -
19/12:00am 10.5 9.2 6.1 74 2.0 SSE 2 4 1 2 1020.4 1020.3 -
 
Date/Time
EST
Temp
°C
App
Temp
°C
Dew
Point
Rel
Hum
%
Delta-T
°C
Wind Press
QNH
hPa
Press
MSL
hPa
Rain
since 9 am
mm
Dir
 
Spd
km/h
Gust
km/h
Spd
kts
Gust
kts
18/11:30pm 10.5 9.4 6.8 78 1.7 SSE 2 4 1 2 1020.6 1020.5 -
18/11:00pm 9.3 7.7 6.4 82 1.3 SSE 4 6 2 3 1020.6 1020.5 -
18/10:30pm 8.9 7.8 5.3 78 1.6 CALM 0 0 0 0 1020.5 1020.4 -
18/10:00pm 10.3 8.8 6.6 78 1.7 SSE 4 6 2 3 1020.2 1020.1 -
18/09:30pm 10.3 9.5 6.3 76 1.9 CALM 0 0 0 0 1020.1 1020.0 -
18/09:00pm 11.3 10.4 6.0 70 2.5 CALM 0 2 0 1 1019.9 1019.8 0.0
18/08:30pm 12.6 11.7 6.0 64 3.1 CALM 0 0 0 0 1019.6 1019.5 -
18/08:00pm 14.6 13.0 6.4 58 4.0 NE 4 6 2 3 1019.3 1019.2 -
18/07:30pm 15.6 14.1 6.6 55 4.4 N 4 6 2 3 1018.8 1018.7 -
18/07:00pm 17.6 16.4 6.5 48 5.5 N 2 4 1 2 1018.1 1018.0 -
18/06:30pm 18.3 16.6 5.8 44 6.1 NE 4 9 2 5 1017.7 1017.6 -
18/06:00pm 19.3 16.8 5.0 39 6.9 NE 7 11 4 6 1017.0 1016.9 -
18/05:30pm 20.9 17.5 4.0 33 8.2 NE 11 17 6 9 1016.2 1016.1 -
18/05:00pm 23.2 19.6 3.2 27 9.6 NNE 11 26 6 14 1015.7 1015.6 -
18/04:30pm 25.3 21.8 -3.2 15 12.4 NNE 6 9 3 5 1015.3 1015.2 -
18/04:00pm 26.4 24.1 -2.3 15 12.8 CALM 0 6 0 3 1014.9 1014.8 -
18/03:30pm 25.2 22.1 -2.4 16 12.2 SE 4 7 2 4 1014.8 1014.7 -
18/03:00pm 25.7 22.1 -2.0 16 12.4 NW 7 15 4 8 1015.0 1014.9 -
18/10:30am 22.2 18.5 0.1 23 10.0 SW 9 15 5 8 1018.8 1018.7 0.0
18/10:00am 21.5 15.7 0.1 24 9.6 S 20 30 11 16 1019.0 1018.9 0.0
18/09:30am 21.1 15.0 0.3 25 9.3 SSW 22 33 12 18 1019.3 1019.2 0.0
18/09:00am 21.1 15.6 0.9 26 9.2 SSW 19 30 10 16 1019.5 1019.4 0.0
18/08:30am 20.3 17.2 3.5 33 8.0 SW 9 17 5 9 1019.6 1019.5 0.0
18/08:00am 18.8 16.3 3.8 37 7.1 SW 6 9 3 5 1019.5 1019.4 0.0
18/07:30am 14.2 13.1 5.3 55 4.2 CALM 0 4 0 2 1019.3 1019.2 0.0
18/07:00am 11.6 10.7 5.9 68 2.7 CALM 0 0 0 0 1019.1 1019.0 0.0
18/06:30am 7.9 6.6 4.3 78 1.6 CALM 0 0 0 0 1018.8 1018.7 0.0
18/06:00am 6.1 4.6 2.9 80 1.3 CALM 0 0 0 0 1018.4 1018.3 0.0
18/05:30am 7.8 6.4 3.8 76 1.7 CALM 0 0 0 0 1018.0 1017.9 0.0
18/05:00am 9.0 7.6 3.6 69 2.3 CALM 0 0 0 0 1017.6 1017.5 0.0
18/04:30am 9.2 7.7 2.8 64 2.7 CALM 0 2 0 1 1017.1 1017.0 0.0
18/04:00am 9.9 8.1 3.2 63 2.9 ENE 2 4 1 2 1016.6 1016.5 0.0
18/03:30am 10.2 8.8 3.7 64 2.9 CALM 0 2 0 1 1016.1 1016.0 0.0
18/03:00am 10.8 9.0 3.4 60 3.2 NE 2 6 1 3 1016.0 1015.9 0.0
18/02:30am 11.1 9.3 3.6 60 3.3 SSW 2 4 1 2 1015.7 1015.6 0.0
18/02:00am 12.6 10.2 4.1 56 3.8 ENE 6 7 3 4 1015.7 1015.6 0.0
18/01:30am 10.8 8.6 3.6 61 3.2 S 4 7 2 4 1015.5 1015.4 0.0
18/01:00am 11.1 9.9 4.6 64 2.9 CALM 0 0 0 0 1015.7 1015.6 0.0
18/12:30am 12.4 11.1 4.1 57 3.8 CALM 0 0 0 0 1015.6 1015.5 0.0
18/12:00am 12.2 10.7 3.2 54 4.0 CALM 0 2 0 1 1015.5 1015.4 0.0
 
Date/Time
EST
Temp
°C
App
Temp
°C
Dew
Point
Rel
Hum
%
Delta-T
°C
Wind Press
QNH
hPa
Press
MSL
hPa
Rain
since 9 am
mm
Dir
 
Spd
km/h
Gust
km/h
Spd
kts
Gust
kts
17/11:30pm 13.0 11.7 4.2 55 4.0 CALM 0 6 0 3 1015.6 1015.5 0.0
17/11:00pm 12.0 11.1 5.9 66 2.9 CALM 0 0 0 0 1015.5 1015.4 0.0
17/10:30pm 13.0 11.5 3.1 51 4.4 CALM 0 2 0 1 1015.3 1015.2 0.0
17/10:00pm 14.4 12.6 3.5 48 4.9 E 2 4 1 2 1015.2 1015.1 0.0
17/09:30pm 15.4 13.6 3.2 44 5.5 SE 2 4 1 2 1015.1 1015.0 0.0
17/09:00pm 16.3 14.7 2.3 39 6.3 CALM 0 0 0 0 1014.8 1014.7 0.0
17/08:30pm 16.5 14.7 1.0 35 6.8 CALM 0 4 0 2 1014.4 1014.3 0.0
17/08:00pm 18.0 16.2 1.1 32 7.5 CALM 0 0 0 0 1014.1 1014.0 0.0
17/07:30pm 19.0 16.4 1.1 30 8.0 WSW 4 7 2 4 1013.6 1013.5 0.0
17/07:00pm 20.3 17.0 0.2 26 9.0 WSW 7 9 4 5 1013.3 1013.2 0.0
17/06:30pm 21.5 17.9 0.7 25 9.5 WSW 9 11 5 6 1012.8 1012.7 0.0
17/06:00pm 22.4 18.5 0.9 24 9.9 WSW 11 19 6 10 1012.2 1012.1 0.0
17/05:30pm 24.5 19.8 0.8 21 11.0 W 15 24 8 13 1011.6 1011.5 0.0
17/05:00pm 25.7 21.4 1.1 20 11.6 W 13 22 7 12 1011.3 1011.2 0.0
17/04:30pm 26.5 20.8 0.3 18 12.3 W 20 32 11 17 1010.9 1010.8 0.0

Other Formats:

Comma delimited format used in spreadsheet applications
http://www.bom.gov.au/fwo/IDQ60801/IDQ60801.95575.axf

JavaScript Object Notation format (JSON) in row-major order
http://www.bom.gov.au/fwo/IDQ60801/IDQ60801.95575.json